sensor_id;sensor_type;location;lat;lon;timestamp;P1;durP1;ratioP1;P2;durP2;ratioP2
43070;SDS011;36278;47.952;21.714;2022-10-16T00:00:17;27.13;;;21.93;;
43070;SDS011;36278;47.952;21.714;2022-10-16T00:02:42;26.13;;;21.30;;
43070;SDS011;36278;47.952;21.714;2022-10-16T00:05:08;26.33;;;20.77;;
43070;SDS011;36278;47.952;21.714;2022-10-16T00:07:33;29.27;;;22.37;;
43070;SDS011;36278;47.952;21.714;2022-10-16T00:09:59;26.23;;;21.97;;
43070;SDS011;36278;47.952;21.714;2022-10-16T00:12:24;25.87;;;21.73;;
43070;SDS011;36278;47.952;21.714;2022-10-16T00:14:50;26.03;;;21.07;;
43070;SDS011;36278;47.952;21.714;2022-10-16T00:17:15;26.07;;;21.20;;
43070;SDS011;36278;47.952;21.714;2022-10-16T00:19:41;26.50;;;21.30;;
43070;SDS011;36278;47.952;21.714;2022-10-16T00:22:06;29.40;;;21.63;;
43070;SDS011;36278;47.952;21.714;2022-10-16T00:24:31;30.27;;;21.17;;
43070;SDS011;36278;47.952;21.714;2022-10-16T00:26:57;23.83;;;21.03;;
43070;SDS011;36278;47.952;21.714;2022-10-16T00:29:22;27.07;;;21.73;;
43070;SDS011;36278;47.952;21.714;2022-10-16T00:31:48;29.63;;;20.47;;
43070;SDS011;36278;47.952;21.714;2022-10-16T00:34:13;28.10;;;21.03;;
43070;SDS011;36278;47.952;21.714;2022-10-16T00:36:39;28.33;;;20.80;;
43070;SDS011;36278;47.952;21.714;2022-10-16T00:39:04;26.10;;;21.47;;
43070;SDS011;36278;47.952;21.714;2022-10-16T00:41:30;28.83;;;22.40;;
43070;SDS011;36278;47.952;21.714;2022-10-16T00:43:57;26.20;;;22.50;;
43070;SDS011;36278;47.952;21.714;2022-10-16T00:49:03;26.93;;;22.97;;
43070;SDS011;36278;47.952;21.714;2022-10-16T00:54:03;34.23;;;23.00;;
43070;SDS011;36278;47.952;21.714;2022-10-16T00:56:32;31.83;;;23.43;;
43070;SDS011;36278;47.952;21.714;2022-10-16T00:58:58;28.40;;;22.67;;
43070;SDS011;36278;47.952;21.714;2022-10-16T01:01:26;27.27;;;22.87;;
43070;SDS011;36278;47.952;21.714;2022-10-16T01:03:52;28.93;;;22.47;;
43070;SDS011;36278;47.952;21.714;2022-10-16T01:06:38;26.93;;;21.07;;
43070;SDS011;36278;47.952;21.714;2022-10-16T01:18:30;28.63;;;20.97;;
43070;SDS011;36278;47.952;21.714;2022-10-16T01:24:06;26.63;;;21.30;;
43070;SDS011;36278;47.952;21.714;2022-10-16T01:29:34;30.80;;;21.33;;
43070;SDS011;36278;47.952;21.714;2022-10-16T01:32:15;25.53;;;20.40;;
43070;SDS011;36278;47.952;21.714;2022-10-16T01:34:47;30.27;;;20.63;;
43070;SDS011;36278;47.952;21.714;2022-10-16T01:37:18;27.23;;;21.87;;
43070;SDS011;36278;47.952;21.714;2022-10-16T01:39:57;25.13;;;20.40;;
43070;SDS011;36278;47.952;21.714;2022-10-16T01:42:27;27.27;;;21.40;;
43070;SDS011;36278;47.952;21.714;2022-10-16T01:44:58;29.17;;;21.23;;
43070;SDS011;36278;47.952;21.714;2022-10-16T01:47:26;29.93;;;21.93;;
43070;SDS011;36278;47.952;21.714;2022-10-16T01:49:55;31.80;;;21.83;;
43070;SDS011;36278;47.952;21.714;2022-10-16T01:52:24;28.70;;;21.47;;
43070;SDS011;36278;47.952;21.714;2022-10-16T01:54:53;24.67;;;20.57;;
43070;SDS011;36278;47.952;21.714;2022-10-16T01:57:21;26.83;;;21.57;;
43070;SDS011;36278;47.952;21.714;2022-10-16T01:59:51;29.10;;;21.77;;
43070;SDS011;36278;47.952;21.714;2022-10-16T02:02:21;32.33;;;22.27;;
43070;SDS011;36278;47.952;21.714;2022-10-16T02:04:58;26.03;;;21.57;;
43070;SDS011;36278;47.952;21.714;2022-10-16T02:07:28;29.73;;;22.30;;
43070;SDS011;36278;47.952;21.714;2022-10-16T02:09:54;32.73;;;22.80;;
43070;SDS011;36278;47.952;21.714;2022-10-16T02:12:27;30.03;;;22.10;;
43070;SDS011;36278;47.952;21.714;2022-10-16T02:14:56;29.57;;;22.13;;
43070;SDS011;36278;47.952;21.714;2022-10-16T02:17:21;26.93;;;22.60;;
43070;SDS011;36278;47.952;21.714;2022-10-16T02:19:48;27.03;;;23.07;;
43070;SDS011;36278;47.952;21.714;2022-10-16T02:22:20;28.37;;;22.73;;
43070;SDS011;36278;47.952;21.714;2022-10-16T02:25:38;28.23;;;21.53;;
43070;SDS011;36278;47.952;21.714;2022-10-16T02:27:51;29.03;;;22.33;;
43070;SDS011;36278;47.952;21.714;2022-10-16T02:32:48;28.60;;;22.70;;
43070;SDS011;36278;47.952;21.714;2022-10-16T02:35:16;33.57;;;21.70;;
43070;SDS011;36278;47.952;21.714;2022-10-16T02:37:43;29.30;;;21.83;;
43070;SDS011;36278;47.952;21.714;2022-10-16T02:40:11;29.50;;;21.43;;
43070;SDS011;36278;47.952;21.714;2022-10-16T02:42:38;27.23;;;22.90;;
43070;SDS011;36278;47.952;21.714;2022-10-16T02:45:05;29.17;;;22.13;;
43070;SDS011;36278;47.952;21.714;2022-10-16T02:47:32;31.33;;;22.07;;
43070;SDS011;36278;47.952;21.714;2022-10-16T02:49:57;29.13;;;23.00;;
43070;SDS011;36278;47.952;21.714;2022-10-16T02:52:23;30.33;;;23.23;;
43070;SDS011;36278;47.952;21.714;2022-10-16T02:54:49;30.70;;;23.53;;
43070;SDS011;36278;47.952;21.714;2022-10-16T02:57:14;32.90;;;23.07;;
43070;SDS011;36278;47.952;21.714;2022-10-16T02:59:40;30.40;;;22.37;;
43070;SDS011;36278;47.952;21.714;2022-10-16T03:02:05;29.10;;;22.47;;
43070;SDS011;36278;47.952;21.714;2022-10-16T03:04:30;30.63;;;22.50;;
43070;SDS011;36278;47.952;21.714;2022-10-16T03:06:56;27.90;;;22.33;;
43070;SDS011;36278;47.952;21.714;2022-10-16T03:09:21;33.87;;;22.90;;
43070;SDS011;36278;47.952;21.714;2022-10-16T03:11:47;29.77;;;22.80;;
43070;SDS011;36278;47.952;21.714;2022-10-16T03:14:12;30.80;;;22.40;;
43070;SDS011;36278;47.952;21.714;2022-10-16T03:16:38;29.87;;;22.13;;
43070;SDS011;36278;47.952;21.714;2022-10-16T03:19:03;29.07;;;23.67;;
43070;SDS011;36278;47.952;21.714;2022-10-16T03:21:29;31.00;;;24.17;;
43070;SDS011;36278;47.952;21.714;2022-10-16T03:23:54;32.17;;;24.07;;
43070;SDS011;36278;47.952;21.714;2022-10-16T03:26:20;32.70;;;24.03;;
43070;SDS011;36278;47.952;21.714;2022-10-16T03:28:45;34.97;;;24.07;;
43070;SDS011;36278;47.952;21.714;2022-10-16T03:31:11;33.63;;;24.07;;
43070;SDS011;36278;47.952;21.714;2022-10-16T03:33:36;35.60;;;27.03;;
43070;SDS011;36278;47.952;21.714;2022-10-16T03:36:01;36.33;;;26.50;;
43070;SDS011;36278;47.952;21.714;2022-10-16T03:38:27;36.63;;;25.93;;
43070;SDS011;36278;47.952;21.714;2022-10-16T03:40:52;38.80;;;26.37;;
43070;SDS011;36278;47.952;21.714;2022-10-16T03:43:18;34.17;;;25.10;;
43070;SDS011;36278;47.952;21.714;2022-10-16T03:45:43;35.27;;;25.30;;
43070;SDS011;36278;47.952;21.714;2022-10-16T03:48:09;35.30;;;24.80;;
43070;SDS011;36278;47.952;21.714;2022-10-16T03:50:34;35.17;;;24.60;;
43070;SDS011;36278;47.952;21.714;2022-10-16T03:53:00;33.53;;;24.40;;
43070;SDS011;36278;47.952;21.714;2022-10-16T03:55:25;37.03;;;25.33;;
43070;SDS011;36278;47.952;21.714;2022-10-16T03:57:51;30.33;;;25.67;;
43070;SDS011;36278;47.952;21.714;2022-10-16T04:00:16;34.73;;;25.50;;
43070;SDS011;36278;47.952;21.714;2022-10-16T04:02:42;36.57;;;24.63;;
43070;SDS011;36278;47.952;21.714;2022-10-16T04:05:07;32.40;;;23.83;;
43070;SDS011;36278;47.952;21.714;2022-10-16T04:07:33;32.63;;;24.03;;
43070;SDS011;36278;47.952;21.714;2022-10-16T04:09:58;29.23;;;22.90;;
43070;SDS011;36278;47.952;21.714;2022-10-16T04:12:24;30.80;;;23.00;;
43070;SDS011;36278;47.952;21.714;2022-10-16T04:14:50;37.60;;;23.87;;
43070;SDS011;36278;47.952;21.714;2022-10-16T04:17:15;32.87;;;23.67;;
43070;SDS011;36278;47.952;21.714;2022-10-16T04:19:41;30.07;;;22.60;;
43070;SDS011;36278;47.952;21.714;2022-10-16T04:22:06;30.70;;;22.53;;
43070;SDS011;36278;47.952;21.714;2022-10-16T04:24:32;30.83;;;23.03;;
43070;SDS011;36278;47.952;21.714;2022-10-16T04:26:57;30.53;;;22.63;;
43070;SDS011;36278;47.952;21.714;2022-10-16T04:29:23;33.10;;;23.93;;
43070;SDS011;36278;47.952;21.714;2022-10-16T04:31:48;29.57;;;22.50;;
43070;SDS011;36278;47.952;21.714;2022-10-16T04:34:14;29.30;;;23.10;;
43070;SDS011;36278;47.952;21.714;2022-10-16T04:36:39;27.17;;;22.77;;
43070;SDS011;36278;47.952;21.714;2022-10-16T04:39:04;31.97;;;23.27;;
43070;SDS011;36278;47.952;21.714;2022-10-16T04:41:30;32.30;;;22.00;;
43070;SDS011;36278;47.952;21.714;2022-10-16T04:43:55;30.83;;;22.73;;
43070;SDS011;36278;47.952;21.714;2022-10-16T04:46:21;36.33;;;22.17;;
43070;SDS011;36278;47.952;21.714;2022-10-16T04:48:46;30.83;;;22.57;;
43070;SDS011;36278;47.952;21.714;2022-10-16T04:51:12;33.50;;;23.57;;
43070;SDS011;36278;47.952;21.714;2022-10-16T04:53:37;32.80;;;23.23;;
43070;SDS011;36278;47.952;21.714;2022-10-16T04:56:02;31.23;;;23.37;;
43070;SDS011;36278;47.952;21.714;2022-10-16T04:58:28;33.87;;;22.73;;
43070;SDS011;36278;47.952;21.714;2022-10-16T05:00:53;29.13;;;22.40;;
43070;SDS011;36278;47.952;21.714;2022-10-16T05:03:19;29.93;;;22.83;;
43070;SDS011;36278;47.952;21.714;2022-10-16T05:05:45;29.93;;;23.23;;
43070;SDS011;36278;47.952;21.714;2022-10-16T05:08:14;30.53;;;21.87;;
43070;SDS011;36278;47.952;21.714;2022-10-16T05:10:41;28.90;;;21.87;;
43070;SDS011;36278;47.952;21.714;2022-10-16T05:13:07;28.77;;;22.60;;
43070;SDS011;36278;47.952;21.714;2022-10-16T05:15:33;28.83;;;21.67;;
43070;SDS011;36278;47.952;21.714;2022-10-16T05:17:59;31.83;;;22.37;;
43070;SDS011;36278;47.952;21.714;2022-10-16T05:20:24;30.83;;;23.23;;
43070;SDS011;36278;47.952;21.714;2022-10-16T05:22:50;31.93;;;23.13;;
43070;SDS011;36278;47.952;21.714;2022-10-16T05:25:15;32.03;;;23.90;;
43070;SDS011;36278;47.952;21.714;2022-10-16T05:27:41;30.80;;;22.87;;
43070;SDS011;36278;47.952;21.714;2022-10-16T05:30:06;33.70;;;23.93;;
43070;SDS011;36278;47.952;21.714;2022-10-16T05:32:32;31.80;;;23.23;;
43070;SDS011;36278;47.952;21.714;2022-10-16T05:34:58;31.60;;;23.17;;
43070;SDS011;36278;47.952;21.714;2022-10-16T05:37:25;30.77;;;22.00;;
43070;SDS011;36278;47.952;21.714;2022-10-16T05:39:52;31.27;;;22.97;;
43070;SDS011;36278;47.952;21.714;2022-10-16T05:42:17;33.20;;;23.60;;
43070;SDS011;36278;47.952;21.714;2022-10-16T05:44:43;32.87;;;23.10;;
43070;SDS011;36278;47.952;21.714;2022-10-16T05:47:09;33.53;;;23.07;;
43070;SDS011;36278;47.952;21.714;2022-10-16T05:49:36;31.33;;;23.37;;
43070;SDS011;36278;47.952;21.714;2022-10-16T05:52:01;31.00;;;22.80;;
43070;SDS011;36278;47.952;21.714;2022-10-16T05:54:27;33.27;;;23.17;;
43070;SDS011;36278;47.952;21.714;2022-10-16T05:56:52;27.90;;;23.70;;
43070;SDS011;36278;47.952;21.714;2022-10-16T05:59:17;29.97;;;22.47;;
43070;SDS011;36278;47.952;21.714;2022-10-16T06:01:43;38.83;;;31.13;;
43070;SDS011;36278;47.952;21.714;2022-10-16T06:04:08;32.63;;;24.00;;
43070;SDS011;36278;47.952;21.714;2022-10-16T06:06:34;29.00;;;23.50;;
43070;SDS011;36278;47.952;21.714;2022-10-16T06:09:01;31.67;;;23.83;;
43070;SDS011;36278;47.952;21.714;2022-10-16T06:11:28;32.43;;;24.63;;
43070;SDS011;36278;47.952;21.714;2022-10-16T06:13:56;31.63;;;23.87;;
43070;SDS011;36278;47.952;21.714;2022-10-16T06:16:26;29.10;;;24.43;;
43070;SDS011;36278;47.952;21.714;2022-10-16T06:18:53;30.57;;;22.33;;
43070;SDS011;36278;47.952;21.714;2022-10-16T06:21:20;34.40;;;22.73;;
43070;SDS011;36278;47.952;21.714;2022-10-16T06:23:47;29.57;;;22.80;;
43070;SDS011;36278;47.952;21.714;2022-10-16T06:26:14;27.37;;;22.10;;
43070;SDS011;36278;47.952;21.714;2022-10-16T06:28:41;27.03;;;22.17;;
43070;SDS011;36278;47.952;21.714;2022-10-16T06:31:07;25.87;;;20.83;;
43070;SDS011;36278;47.952;21.714;2022-10-16T06:33:34;26.70;;;21.57;;
43070;SDS011;36278;47.952;21.714;2022-10-16T06:36:00;29.00;;;22.30;;
43070;SDS011;36278;47.952;21.714;2022-10-16T06:38:27;33.10;;;21.97;;
43070;SDS011;36278;47.952;21.714;2022-10-16T06:40:53;30.60;;;23.33;;
43070;SDS011;36278;47.952;21.714;2022-10-16T06:43:18;27.60;;;20.27;;
43070;SDS011;36278;47.952;21.714;2022-10-16T06:45:49;26.47;;;19.90;;
43070;SDS011;36278;47.952;21.714;2022-10-16T06:48:19;26.87;;;19.50;;
43070;SDS011;36278;47.952;21.714;2022-10-16T06:50:54;24.93;;;19.70;;
43070;SDS011;36278;47.952;21.714;2022-10-16T06:53:21;27.10;;;19.80;;
43070;SDS011;36278;47.952;21.714;2022-10-16T06:55:46;27.10;;;20.07;;
43070;SDS011;36278;47.952;21.714;2022-10-16T06:58:12;29.33;;;20.53;;
43070;SDS011;36278;47.952;21.714;2022-10-16T07:00:37;34.33;;;22.17;;
43070;SDS011;36278;47.952;21.714;2022-10-16T07:03:03;28.10;;;21.07;;
43070;SDS011;36278;47.952;21.714;2022-10-16T07:05:28;28.63;;;21.73;;
43070;SDS011;36278;47.952;21.714;2022-10-16T07:07:53;29.43;;;21.30;;
43070;SDS011;36278;47.952;21.714;2022-10-16T07:10:19;30.93;;;23.17;;
43070;SDS011;36278;47.952;21.714;2022-10-16T07:12:44;34.70;;;22.80;;
43070;SDS011;36278;47.952;21.714;2022-10-16T07:15:10;35.50;;;23.53;;
43070;SDS011;36278;47.952;21.714;2022-10-16T07:17:35;29.43;;;21.63;;
43070;SDS011;36278;47.952;21.714;2022-10-16T07:20:01;31.47;;;21.43;;
43070;SDS011;36278;47.952;21.714;2022-10-16T07:22:27;33.57;;;21.27;;
43070;SDS011;36278;47.952;21.714;2022-10-16T07:24:53;29.27;;;20.80;;
43070;SDS011;36278;47.952;21.714;2022-10-16T07:27:19;26.70;;;19.80;;
43070;SDS011;36278;47.952;21.714;2022-10-16T07:29:47;25.23;;;19.37;;
43070;SDS011;36278;47.952;21.714;2022-10-16T07:32:12;23.77;;;19.83;;
43070;SDS011;36278;47.952;21.714;2022-10-16T07:34:38;23.73;;;18.33;;
43070;SDS011;36278;47.952;21.714;2022-10-16T07:37:03;19.47;;;16.90;;
43070;SDS011;36278;47.952;21.714;2022-10-16T07:39:29;24.80;;;17.00;;
43070;SDS011;36278;47.952;21.714;2022-10-16T07:41:54;22.80;;;16.57;;
43070;SDS011;36278;47.952;21.714;2022-10-16T07:44:19;26.03;;;17.07;;
43070;SDS011;36278;47.952;21.714;2022-10-16T07:46:45;21.93;;;16.53;;
43070;SDS011;36278;47.952;21.714;2022-10-16T07:49:11;23.40;;;16.77;;
43070;SDS011;36278;47.952;21.714;2022-10-16T07:51:36;24.60;;;15.93;;
43070;SDS011;36278;47.952;21.714;2022-10-16T07:54:03;19.90;;;15.33;;
43070;SDS011;36278;47.952;21.714;2022-10-16T07:56:30;18.33;;;14.47;;
43070;SDS011;36278;47.952;21.714;2022-10-16T07:58:57;20.37;;;16.10;;
43070;SDS011;36278;47.952;21.714;2022-10-16T08:01:22;25.40;;;14.80;;
43070;SDS011;36278;47.952;21.714;2022-10-16T08:03:48;16.93;;;13.63;;
43070;SDS011;36278;47.952;21.714;2022-10-16T08:06:16;22.53;;;14.23;;
43070;SDS011;36278;47.952;21.714;2022-10-16T08:08:42;24.63;;;18.27;;
43070;SDS011;36278;47.952;21.714;2022-10-16T08:11:08;19.07;;;14.63;;
43070;SDS011;36278;47.952;21.714;2022-10-16T08:13:33;19.53;;;14.10;;
43070;SDS011;36278;47.952;21.714;2022-10-16T08:15:59;18.73;;;13.93;;
43070;SDS011;36278;47.952;21.714;2022-10-16T08:18:25;21.07;;;14.00;;
43070;SDS011;36278;47.952;21.714;2022-10-16T08:20:59;16.83;;;12.57;;
43070;SDS011;36278;47.952;21.714;2022-10-16T08:23:25;18.57;;;13.30;;
43070;SDS011;36278;47.952;21.714;2022-10-16T08:25:51;17.60;;;13.93;;
43070;SDS011;36278;47.952;21.714;2022-10-16T08:28:18;23.20;;;13.80;;
43070;SDS011;36278;47.952;21.714;2022-10-16T08:30:44;18.53;;;13.20;;
43070;SDS011;36278;47.952;21.714;2022-10-16T08:33:09;17.67;;;13.07;;
43070;SDS011;36278;47.952;21.714;2022-10-16T08:35:35;16.17;;;12.30;;
43070;SDS011;36278;47.952;21.714;2022-10-16T08:38:04;20.27;;;12.53;;
43070;SDS011;36278;47.952;21.714;2022-10-16T08:40:30;18.63;;;12.73;;
43070;SDS011;36278;47.952;21.714;2022-10-16T08:43:20;22.87;;;12.63;;
43070;SDS011;36278;47.952;21.714;2022-10-16T08:48:45;18.38;;;13.10;;
43070;SDS011;36278;47.952;21.714;2022-10-16T08:51:18;17.50;;;12.03;;
43070;SDS011;36278;47.952;21.714;2022-10-16T08:53:49;11.70;;;9.63;;
43070;SDS011;36278;47.952;21.714;2022-10-16T08:56:20;13.43;;;9.67;;
43070;SDS011;36278;47.952;21.714;2022-10-16T08:58:46;14.07;;;9.53;;
43070;SDS011;36278;47.952;21.714;2022-10-16T09:01:14;12.83;;;9.50;;
43070;SDS011;36278;47.952;21.714;2022-10-16T09:04:02;13.27;;;10.10;;
43070;SDS011;36278;47.952;21.714;2022-10-16T09:06:50;17.07;;;10.77;;
43070;SDS011;36278;47.952;21.714;2022-10-16T09:25:28;13.60;;;9.50;;
43070;SDS011;36278;47.952;21.714;2022-10-16T09:27:53;13.67;;;9.77;;
43070;SDS011;36278;47.952;21.714;2022-10-16T09:30:20;14.40;;;10.00;;
43070;SDS011;36278;47.952;21.714;2022-10-16T09:32:47;11.23;;;8.70;;
43070;SDS011;36278;47.952;21.714;2022-10-16T09:35:17;10.03;;;8.10;;
43070;SDS011;36278;47.952;21.714;2022-10-16T09:37:46;14.07;;;8.40;;
43070;SDS011;36278;47.952;21.714;2022-10-16T09:40:34;11.20;;;8.40;;
43070;SDS011;36278;47.952;21.714;2022-10-16T09:48:20;12.52;;;8.25;;
43070;SDS011;36278;47.952;21.714;2022-10-16T09:50:54;14.63;;;8.52;;
43070;SDS011;36278;47.952;21.714;2022-10-16T09:53:38;12.05;;;7.97;;
43070;SDS011;36278;47.952;21.714;2022-10-16T09:56:06;9.60;;;7.72;;
43070;SDS011;36278;47.952;21.714;2022-10-16T09:58:32;16.83;;;8.23;;
43070;SDS011;36278;47.952;21.714;2022-10-16T10:00:58;14.45;;;8.15;;
43070;SDS011;36278;47.952;21.714;2022-10-16T10:03:35;13.32;;;8.00;;
43070;SDS011;36278;47.952;21.714;2022-10-16T10:06:22;12.55;;;7.63;;
43070;SDS011;36278;47.952;21.714;2022-10-16T10:08:54;15.13;;;8.15;;
43070;SDS011;36278;47.952;21.714;2022-10-16T10:11:38;13.35;;;8.07;;
43070;SDS011;36278;47.952;21.714;2022-10-16T10:14:19;11.07;;;7.50;;
43070;SDS011;36278;47.952;21.714;2022-10-16T10:16:48;15.18;;;8.07;;
43070;SDS011;36278;47.952;21.714;2022-10-16T10:19:15;9.95;;;7.10;;
43070;SDS011;36278;47.952;21.714;2022-10-16T10:21:42;11.88;;;7.07;;
43070;SDS011;36278;47.952;21.714;2022-10-16T10:24:10;10.68;;;7.03;;
43070;SDS011;36278;47.952;21.714;2022-10-16T10:26:36;8.38;;;6.57;;
43070;SDS011;36278;47.952;21.714;2022-10-16T10:39:50;10.50;;;7.03;;
43070;SDS011;36278;47.952;21.714;2022-10-16T10:45:32;9.95;;;6.18;;
43070;SDS011;36278;47.952;21.714;2022-10-16T10:48:16;8.57;;;6.18;;
43070;SDS011;36278;47.952;21.714;2022-10-16T10:51:11;11.02;;;6.95;;
43070;SDS011;36278;47.952;21.714;2022-10-16T10:59:16;13.23;;;6.18;;
43070;SDS011;36278;47.952;21.714;2022-10-16T11:01:50;10.63;;;6.20;;
43070;SDS011;36278;47.952;21.714;2022-10-16T11:07:18;10.88;;;6.25;;
43070;SDS011;36278;47.952;21.714;2022-10-16T11:09:57;9.20;;;6.50;;
43070;SDS011;36278;47.952;21.714;2022-10-16T11:12:35;11.70;;;6.68;;
43070;SDS011;36278;47.952;21.714;2022-10-16T11:15:11;7.75;;;6.07;;
43070;SDS011;36278;47.952;21.714;2022-10-16T11:17:51;9.18;;;6.40;;
43070;SDS011;36278;47.952;21.714;2022-10-16T11:20:34;9.27;;;6.28;;
43070;SDS011;36278;47.952;21.714;2022-10-16T11:23:10;10.45;;;6.97;;
43070;SDS011;36278;47.952;21.714;2022-10-16T11:25:38;13.05;;;6.00;;
43070;SDS011;36278;47.952;21.714;2022-10-16T11:28:20;7.13;;;5.65;;
43070;SDS011;36278;47.952;21.714;2022-10-16T11:33:28;11.85;;;5.78;;
43070;SDS011;36278;47.952;21.714;2022-10-16T11:39:28;8.43;;;5.88;;
43070;SDS011;36278;47.952;21.714;2022-10-16T11:41:57;7.38;;;5.43;;
43070;SDS011;36278;47.952;21.714;2022-10-16T11:47:45;6.93;;;5.60;;
43070;SDS011;36278;47.952;21.714;2022-10-16T11:50:36;7.05;;;5.75;;
43070;SDS011;36278;47.952;21.714;2022-10-16T11:55:58;12.65;;;5.50;;
43070;SDS011;36278;47.952;21.714;2022-10-16T12:06:35;7.93;;;5.90;;
43070;SDS011;36278;47.952;21.714;2022-10-16T12:09:05;8.85;;;6.20;;
43070;SDS011;36278;47.952;21.714;2022-10-16T12:11:40;15.23;;;6.75;;
43070;SDS011;36278;47.952;21.714;2022-10-16T12:16:59;6.72;;;5.30;;
43070;SDS011;36278;47.952;21.714;2022-10-16T12:19:56;10.23;;;5.47;;
43070;SDS011;36278;47.952;21.714;2022-10-16T12:22:36;8.23;;;5.13;;
43070;SDS011;36278;47.952;21.714;2022-10-16T12:25:26;7.05;;;4.55;;
43070;SDS011;36278;47.952;21.714;2022-10-16T12:30:26;10.55;;;5.57;;
43070;SDS011;36278;47.952;21.714;2022-10-16T12:32:55;6.93;;;5.38;;
43070;SDS011;36278;47.952;21.714;2022-10-16T12:35:27;6.28;;;4.57;;
43070;SDS011;36278;47.952;21.714;2022-10-16T12:38:04;6.28;;;5.00;;
43070;SDS011;36278;47.952;21.714;2022-10-16T12:40:40;7.25;;;4.75;;
43070;SDS011;36278;47.952;21.714;2022-10-16T12:45:46;9.48;;;4.93;;
43070;SDS011;36278;47.952;21.714;2022-10-16T12:48:21;6.85;;;4.57;;
43070;SDS011;36278;47.952;21.714;2022-10-16T12:50:47;9.00;;;4.65;;
43070;SDS011;36278;47.952;21.714;2022-10-16T12:53:18;5.65;;;4.18;;
43070;SDS011;36278;47.952;21.714;2022-10-16T12:55:55;12.10;;;5.50;;
43070;SDS011;36278;47.952;21.714;2022-10-16T13:04:14;7.43;;;5.05;;
43070;SDS011;36278;47.952;21.714;2022-10-16T13:07:21;7.72;;;4.50;;
43070;SDS011;36278;47.952;21.714;2022-10-16T13:12:45;6.55;;;4.70;;
43070;SDS011;36278;47.952;21.714;2022-10-16T13:15:23;9.43;;;4.28;;
43070;SDS011;36278;47.952;21.714;2022-10-16T13:26:45;7.57;;;4.95;;
43070;SDS011;36278;47.952;21.714;2022-10-16T13:29:19;6.97;;;4.60;;
43070;SDS011;36278;47.952;21.714;2022-10-16T13:31:45;7.47;;;4.78;;
43070;SDS011;36278;47.952;21.714;2022-10-16T13:34:15;7.82;;;4.63;;
43070;SDS011;36278;47.952;21.714;2022-10-16T13:41:46;6.20;;;4.72;;
43070;SDS011;36278;47.952;21.714;2022-10-16T13:44:43;7.60;;;4.80;;
43070;SDS011;36278;47.952;21.714;2022-10-16T13:47:15;5.90;;;4.65;;
43070;SDS011;36278;47.952;21.714;2022-10-16T13:52:18;7.35;;;4.60;;
43070;SDS011;36278;47.952;21.714;2022-10-16T13:54:45;8.00;;;4.88;;
43070;SDS011;36278;47.952;21.714;2022-10-16T13:57:13;8.25;;;4.68;;
43070;SDS011;36278;47.952;21.714;2022-10-16T13:59:39;7.55;;;5.47;;
43070;SDS011;36278;47.952;21.714;2022-10-16T14:04:51;9.85;;;4.88;;
43070;SDS011;36278;47.952;21.714;2022-10-16T14:07:25;8.52;;;4.60;;
43070;SDS011;36278;47.952;21.714;2022-10-16T14:09:54;11.23;;;5.25;;
43070;SDS011;36278;47.952;21.714;2022-10-16T14:12:20;6.28;;;4.60;;
43070;SDS011;36278;47.952;21.714;2022-10-16T14:14:47;12.00;;;5.90;;
43070;SDS011;36278;47.952;21.714;2022-10-16T14:17:20;8.50;;;5.30;;
43070;SDS011;36278;47.952;21.714;2022-10-16T14:19:50;9.82;;;5.20;;
43070;SDS011;36278;47.952;21.714;2022-10-16T14:22:29;6.07;;;5.05;;
43070;SDS011;36278;47.952;21.714;2022-10-16T14:25:21;8.43;;;4.97;;
43070;SDS011;36278;47.952;21.714;2022-10-16T14:30:49;6.97;;;4.53;;
43070;SDS011;36278;47.952;21.714;2022-10-16T14:36:11;9.98;;;5.00;;
43070;SDS011;36278;47.952;21.714;2022-10-16T14:38:39;7.78;;;5.22;;
43070;SDS011;36278;47.952;21.714;2022-10-16T14:41:06;9.57;;;5.13;;
43070;SDS011;36278;47.952;21.714;2022-10-16T14:43:33;7.68;;;4.93;;
43070;SDS011;36278;47.952;21.714;2022-10-16T14:45:59;7.53;;;5.22;;
43070;SDS011;36278;47.952;21.714;2022-10-16T14:48:26;11.43;;;5.63;;
43070;SDS011;36278;47.952;21.714;2022-10-16T14:50:52;11.82;;;5.38;;
43070;SDS011;36278;47.952;21.714;2022-10-16T14:53:18;9.18;;;5.32;;
43070;SDS011;36278;47.952;21.714;2022-10-16T14:55:44;9.63;;;5.10;;
43070;SDS011;36278;47.952;21.714;2022-10-16T14:58:16;10.70;;;5.30;;
43070;SDS011;36278;47.952;21.714;2022-10-16T15:00:44;8.32;;;4.60;;
43070;SDS011;36278;47.952;21.714;2022-10-16T15:03:10;12.93;;;5.30;;
43070;SDS011;36278;47.952;21.714;2022-10-16T15:05:35;10.18;;;4.68;;
43070;SDS011;36278;47.952;21.714;2022-10-16T15:08:01;7.65;;;5.10;;
43070;SDS011;36278;47.952;21.714;2022-10-16T15:10:27;10.15;;;5.10;;
43070;SDS011;36278;47.952;21.714;2022-10-16T15:12:54;10.43;;;5.68;;
43070;SDS011;36278;47.952;21.714;2022-10-16T15:15:23;11.25;;;5.85;;
43070;SDS011;36278;47.952;21.714;2022-10-16T15:17:50;10.98;;;7.07;;
43070;SDS011;36278;47.952;21.714;2022-10-16T15:20:18;10.90;;;6.95;;
43070;SDS011;36278;47.952;21.714;2022-10-16T15:22:44;13.45;;;7.75;;
43070;SDS011;36278;47.952;21.714;2022-10-16T15:26:11;12.77;;;8.07;;
43070;SDS011;36278;47.952;21.714;2022-10-16T15:28:08;15.50;;;7.97;;
43070;SDS011;36278;47.952;21.714;2022-10-16T15:30:35;13.88;;;8.48;;
43070;SDS011;36278;47.952;21.714;2022-10-16T15:33:02;15.35;;;8.40;;
43070;SDS011;36278;47.952;21.714;2022-10-16T15:35:29;16.10;;;8.23;;
43070;SDS011;36278;47.952;21.714;2022-10-16T15:37:55;13.33;;;8.03;;
43070;SDS011;36278;47.952;21.714;2022-10-16T15:40:21;18.75;;;9.23;;
43070;SDS011;36278;47.952;21.714;2022-10-16T15:42:47;16.33;;;8.70;;
43070;SDS011;36278;47.952;21.714;2022-10-16T15:45:13;15.67;;;10.17;;
43070;SDS011;36278;47.952;21.714;2022-10-16T15:47:40;20.70;;;9.80;;
43070;SDS011;36278;47.952;21.714;2022-10-16T15:50:08;20.27;;;11.00;;
43070;SDS011;36278;47.952;21.714;2022-10-16T15:52:35;16.77;;;10.53;;
43070;SDS011;36278;47.952;21.714;2022-10-16T15:55:01;18.53;;;11.53;;
43070;SDS011;36278;47.952;21.714;2022-10-16T15:57:29;21.87;;;12.67;;
43070;SDS011;36278;47.952;21.714;2022-10-16T15:59:55;26.30;;;11.97;;
43070;SDS011;36278;47.952;21.714;2022-10-16T16:02:20;24.60;;;12.30;;
43070;SDS011;36278;47.952;21.714;2022-10-16T16:04:46;20.67;;;12.47;;
43070;SDS011;36278;47.952;21.714;2022-10-16T16:07:11;21.73;;;12.37;;
43070;SDS011;36278;47.952;21.714;2022-10-16T16:09:37;23.90;;;13.27;;
43070;SDS011;36278;47.952;21.714;2022-10-16T16:12:02;20.87;;;13.93;;
43070;SDS011;36278;47.952;21.714;2022-10-16T16:14:28;20.70;;;13.50;;
43070;SDS011;36278;47.952;21.714;2022-10-16T16:16:57;19.30;;;13.50;;
43070;SDS011;36278;47.952;21.714;2022-10-16T16:19:23;20.03;;;13.43;;
43070;SDS011;36278;47.952;21.714;2022-10-16T16:21:48;20.27;;;14.07;;
43070;SDS011;36278;47.952;21.714;2022-10-16T16:24:14;24.50;;;14.50;;
43070;SDS011;36278;47.952;21.714;2022-10-16T16:26:40;19.80;;;13.53;;
43070;SDS011;36278;47.952;21.714;2022-10-16T16:29:12;19.63;;;14.90;;
43070;SDS011;36278;47.952;21.714;2022-10-16T16:31:39;22.43;;;13.83;;
43070;SDS011;36278;47.952;21.714;2022-10-16T16:34:05;22.37;;;14.90;;
43070;SDS011;36278;47.952;21.714;2022-10-16T16:36:30;22.67;;;15.10;;